Rachel, Nevada Weather observations

Data are for observation ending at time listed.
 Day   Time    Ave.   Ave.  Ave.  Vector   Max.   Stn.    Total    Solar   Ave.  
  of    of     Air    Rel.  Wind   Wind    Wind   Baro.  Precip.   Rad.    Soil  
Year   Day     Temp.  Hum.  Speed  Dir.    Gust   Pres.                    Temp. 
2014   (PST)    F      %     mph   deg.    mph     mb.     in.     W/m2     F   
------------------------------------------------------------------------------
 353   15:20   44.5    59    7.9   176     10.5   853.5    0.00      24    40.0
 353   15:30   44.3    60    7.6   170      9.3   853.3    0.00      20    40.0
 353   15:40   44.0    61    7.4   176     10.9   853.5    0.00      15    40.0
 353   15:50   43.7    62    6.2   177      7.9   853.5    0.00      13    40.0
 353   16:00   43.6    63    5.6   179      7.3   853.5    0.00       9    39.9
 353   16:10   43.3    64    6.5   169      8.6   853.4    0.00       7    39.9
 353   16:20   43.1    64    7.2   176      8.1   853.5    0.00       3    39.9
 353   16:30   42.8    65    5.8   190      8.9   853.6    0.00       3    39.8
 353   16:40   42.5    66    6.8   190      8.5   853.6    0.00       0    39.8
 353   16:50   42.3    66    6.5   199      9.9   853.6    0.00       0    39.7
 353   17:00   42.3    66    6.0   192      9.8   853.5    0.00       0    39.7
 353   17:10   42.2    67    6.3   182     10.4   853.5    0.00       0    39.7
 353   17:20   42.2    66    7.6   179     10.2   853.4    0.00       0    39.7
 353   17:30   42.1    67    6.5   180      8.8   853.4    0.00       0    39.7
 353   17:40   41.9    68    5.4   181      7.5   853.4    0.00       0    39.7
 353   17:50   41.6    69    4.6   192      6.8   853.4    0.00       0    39.6
 353   18:00   41.3    69    2.9   287      4.1   853.3    0.00       0    39.6
 353   18:10   40.8    68    3.2   303      4.5   853.3    0.00       0    39.5
 353   18:20   40.2    70    2.6   269      4.2   853.2    0.00       0    39.5
 353   18:30   40.3    70    2.8   229      4.7   853.1    0.00       0    39.4
 353   18:40   40.9    70    3.9   218      6.4   853.0    0.00       0    39.4
 353   18:50   40.4    71    3.6   217      6.2   853.1    0.00       0    39.3
 353   19:00   39.8    73    4.2   229      6.0   853.1    0.00       0    39.3
 353   19:10   39.1    74    6.0   205     11.9   853.0    0.00       0    39.2
 353   19:20   38.8    76    8.0   180     11.3   852.8    0.00       0    39.1
 353   19:30   38.5    76    8.5   175     11.4   852.8    0.00       0    38.9
 353   19:40   37.7    77    5.5   199      7.9   853.1    0.00       0    38.8
 353   19:50   37.3    78    6.9   214      9.9   853.1    0.00       0    38.8
 353   20:00   37.3    77    6.0   259      9.5   853.0    0.00       0    38.6
 353   20:10   35.9    75    4.7   271      7.4   853.1    0.00       0    38.5
 353   20:20   35.3    77    3.5   267      5.3   853.2    0.00       0    38.4
 353   20:30   34.5    78    2.4   228      4.5   853.4    0.00       0    38.3
 353   20:40   33.7    81    4.1   113      5.3   853.3    0.00       0    38.0
 353   20:50   33.0    83    4.6   110      8.2   853.1    0.00       0    37.7
 353   21:00   33.2    84    4.9   123      8.6   853.2    0.00       0    37.6
 353   21:10   32.3    85    5.3   132      6.6   853.1    0.00       0    37.5
 353   21:20   32.7    86    4.5   134      6.1   853.2    0.00       0    37.3
 353   21:30   31.9    84    4.6   106      5.8   853.0    0.00       0    37.2
 353   21:40   30.8    87    4.0   115      6.5   852.8    0.00       0    36.9
 353   21:50   31.2    88    6.3   142      7.6   852.5    0.00       0    36.8
 353   22:00   31.6    87    4.6   148      7.2   852.5    0.00       0    36.6
 353   22:10   30.5    87    2.1   329      4.6   852.6    0.00       0    36.6
 353   22:20   29.1    89    0.9     2      2.0   852.4    0.00       0    36.4
 353   22:30   29.2    90    3.0    32      5.7   852.4    0.00       0    36.3
 353   22:40   29.9    89    5.0    52      5.9   852.3    0.00       0    36.2
 353   22:50   29.2    90    5.3    63      6.1   852.2    0.00       0    36.0
 353   23:00   30.3    90    4.0    61      5.4   852.4    0.00       0    35.9
 353   23:10   30.4    88    2.0    79      4.4   852.5    0.00       0    35.9
 353   23:20   29.9    89    3.5   233      6.1   852.8    0.00       0    35.9
 353   23:30   29.1    90    2.5   248      5.3   853.0    0.00       0    35.8
 353   23:40   28.6    91    0.4   182      2.0   852.9    0.00       0    35.7
 353   23:50   27.5    92    3.0    74      5.4   852.9    0.00       0    35.5
 354    0:00   27.0    93    2.5    13      4.8   853.0    0.00       0    35.3
 354    0:10   27.3    93    2.5   192      5.1   853.0    0.00       0    35.2
 354    0:20   28.0    94    1.3   145      4.0   852.9    0.00       0    35.2
 354    0:30   29.2    92    2.5   138      3.7   852.6    0.00       0    35.0
 354    0:40   28.5    92    3.1   153      5.1   852.3    0.00       0    35.0
 354    0:50   28.3    92    4.9   153      6.3   852.0    0.00       0    34.9
 354    1:00   27.7    93    4.8   188      6.1   852.0    0.00       0    34.8
 354    1:10   27.7    93    5.2   230      5.9   852.0    0.00       0    34.7
 354    1:20   26.9    93    4.2   224      5.6   852.0    0.00       0    34.7
 354    1:30   26.2    93    1.9   251      4.1   852.1    0.00       0    34.6
 354    1:40   26.5    94    4.3   272      5.6   852.2    0.00       0    34.5
 354    1:50   26.9    94    3.5   268      5.4   852.3    0.00       0    34.5
 354    2:00   27.2    94    1.5   246      3.3   852.2    0.00       0    34.5
 354    2:10   27.4    93    0.8   280      1.8   852.3    0.00       0    34.5
 354    2:20   27.6    93    0.2   278      1.2   852.5    0.00       0    34.5
 354    2:30   27.9    93    1.0   265      2.9   852.5    0.00       0    34.5
 354    2:40   28.2    93    2.5   262      3.4   852.6    0.00       0    34.5
 354    2:50   28.4    93    0.8   258      2.0   852.7    0.00       0    34.5
 354    3:00   28.8    93    2.2   173      3.8   852.6    0.00       0    34.5
 354    3:10   29.3    93    4.0   140      4.8   852.4    0.00       0    34.4
 354    3:20   29.6    93    3.9   130      4.7   852.3    0.00       0    34.4
 354    3:30   29.7    93    4.5   122      5.4   852.4    0.00       0    34.4
 354    3:40   30.0    93    3.7   119      4.7   852.4    0.00       0    34.4
 354    3:50   30.2    93    4.0   129      5.9   852.3    0.00       0    34.4
 354    4:00   30.6    92    3.7   149      5.8   852.2    0.00       0    34.5
 354    4:10   30.7    92    4.2   160      5.1   852.2    0.00       0    34.5
 354    4:20   30.9    92    2.5   155      4.2   852.3    0.00       0    34.5
 354    4:30   30.9    92    2.5   155      3.4   852.3    0.00       0    34.6
 354    4:40   30.9    92    2.4   155      3.6   852.2    0.00       0    34.6
 354    4:50   30.6    91    0.6   156      2.0   852.2    0.00       0    34.6
 354    5:00   29.2    92    1.3   252      2.9   852.1    0.00       0    34.6
 354    5:10   28.8    93    1.8   279      3.7   851.9    0.00       0    34.5
 354    5:20   28.6    93    2.7   281      5.0   851.9    0.00       0    34.5
 354    5:30   28.1    93    2.8   256      4.6   851.5    0.00       0    34.4
 354    5:40   27.6    93    3.3   250      4.5   851.5    0.00       0    34.3
 354    5:50   27.1    94    3.3   250      4.3   851.5    0.00       0    34.3
 354    6:00   26.7    94    2.1   236      3.6   851.5    0.00       0    34.2
 354    6:10   26.5    94    0.7   232      2.1   851.7    0.00       0    34.1
 354    6:20   26.3    94    1.1   227      1.8   851.9    0.00       0    34.1
 354    6:30   26.3    94    2.6   197      4.0   852.1    0.00       0    33.9
 354    6:40   26.4    95    4.2   185      5.0   852.1    0.00       0    33.9
 354    6:50   26.9    95    3.9   174      4.4   852.1    0.00       1    33.9
 354    7:00   27.4    95    4.3   149      5.4   852.0    0.00       7    33.8
 354    7:10   28.0    94    2.3   151      3.1   852.1    0.00       3    33.8
 354    7:20   28.3    94    2.4   163      3.5   852.2    0.00       5    33.9
 354    7:30   28.8    94    2.0   166      3.7   852.2    0.00      10    33.9
 354    7:40   29.2    94    0.0   166      0.4   852.3    0.00      14    34.0
 354    7:50   29.8    94    0.0     0      0.0   852.3    0.00      19    34.0
 354    8:00   30.5    93    0.0     0      0.0   852.5    0.00      25    34.0
 354    8:10   31.0    92    0.3   166      1.5   852.7    0.00      25    34.1
 354    8:20   31.3    92    1.8   165      2.5   852.9    0.00      30    34.2
 354    8:30   31.7    92    2.1   154      3.7   853.0    0.00      33    34.3
 354    8:40   32.3    91    3.4   121      4.2   853.1    0.00      46    34.4
 354    8:50   33.0    90    4.5   113      5.8   853.1    0.00      57    34.4
 354    9:00   33.7    89    5.4   107      6.9   853.1    0.00      69    34.6
 354    9:10   34.4    87    3.4   117      4.8   853.1    0.00      86    34.7
 354    9:20   35.3    85    2.1   106      3.6   853.1    0.00     126    34.9
 354    9:30   36.8    80    0.2    53      1.6   853.3    0.00     160    35.2
 354    9:40   35.3    82    5.3   348      7.8   853.5    0.00     173    35.4
 354    9:50   34.1    83    6.5   355      7.7   853.7    0.00     217    35.5
 354   10:00   34.0    81    4.8     5      6.9   853.7    0.00     168    35.6
 354   10:10   34.8    80    2.6    25      4.2   853.6    0.00     223    35.7
 354   10:20   36.7    76    2.4    30      4.2   853.5    0.00     310    36.0
 354   10:30   37.2    75    3.4    18      5.2   853.6    0.00     184    36.3
 354   10:40   37.5    75    3.6    18      5.3   853.6    0.00     154    36.4
 354   10:50   38.0    74    2.7    10      4.3   853.5    0.00     206    36.6
 354   11:00   38.3    73    1.8     3      4.0   853.4    0.00     118    36.8
 354   11:10   38.9    72    0.5    19      1.9   853.5    0.00     131    36.9
 354   11:20   38.7    72    2.7     4      4.7   853.3    0.00     118    37.1
 354   11:30   38.8    72    2.1   360      4.2   853.1    0.00     114    37.3
 354   11:40   38.9    72    3.0   322      6.2   852.9    0.00     112    37.4
 354   11:50   38.5    74    3.6   313      5.5   853.0    0.00     137    37.5
 354   12:00   39.4    72    2.5   306      3.7   852.7    0.00     226    37.7
 354   12:10   39.7    70    1.6   317      3.3   852.8    0.00     109    37.9
 354   12:20   39.7    70    1.4   338      3.2   853.0    0.00     115    38.0
 354   12:30   40.0    69    1.6   348      3.1   853.1    0.00     120    38.2
 354   12:40   40.1    69    1.3   348      3.0   853.0    0.00     145    38.3
 354   12:50   40.2    69    2.9   184      5.9   852.5    0.00     132    38.5
 354   13:00   40.1    69    4.4   183      7.2   852.0    0.00     147    38.7
 354   13:10   40.7    68    2.6   153      4.5   851.9    0.00     137    38.9
 354   13:20   41.4    67    1.9   183      4.2   851.5    0.00     136    39.0
 354   13:30   42.5    65    0.9    20      3.7   851.5    0.00     240    39.2
 354   13:40   43.2    64    2.9    13      4.3   851.5    0.00     186    39.4
 354   13:50   43.2    64    2.8    22      5.0   851.4    0.00     169    39.5
 354   14:00   44.2    61    4.7    37      6.8   851.7    0.00     177    39.7
 354   14:10   43.9    62    6.3    33      8.3   851.9    0.00     162    39.8
 354   14:20   44.4    61    6.3    16      9.5   851.8    0.00     167    40.0
 354   14:30   44.7    60    4.3    14      6.6   851.6    0.00     183    40.2
 354   14:40   44.6    60    4.4     8      6.7   851.8    0.00     165    40.4
 354   14:50   44.9    60    4.2     2      6.5   852.1    0.00     115    40.6
 354   15:00   44.7    60    3.2     8      6.3   852.0    0.00      64    40.7
 354   15:10   44.6    61    4.1     2      5.9   852.2    0.00      48    40.6

Return to St. George, Utah graphs page.


Western Regional Climate Center,wrcc@dri.edu